• Join FlightAware (Why Join?)
  • Login
  • US Flag 
10:20AM EDT


 

Airport Tracker/Info


-or-


 

Live Flight TrackerFlight Track Log ✈ USC108 ✈ 06-May-2013 ✈ KLCK - KJVY

Flight Track Log - Related Links

Times and Time Zones

All times are in EDT time to prevent confusion due to time zone crossing. See the USC108 flight status page for this flight to view local times or setup timezone preferences in your user account.

Time Position Orientation Groundspeed Altitude Reporting Facility
EDT Latitude Longitude Course Direction KTS MPH feet Rate Location/Type
10:57PM 39.8058 -82.9419 230° Southwest 113 130 1,100  Level Indianapolis Center
10:58PM 39.7847 -82.9750 230° Southwest 123 142 2,500 1,320 Climbing Indianapolis Center
10:59PM 39.7792 -82.9839 231° Southwest 129 148 2,900 1,260 Climbing Indianapolis Center
10:59PM 39.7672 -83.0136 242° Southwest 125 144 3,800 1,440 Climbing Indianapolis Center
11:00PM 39.7575 -83.0308 234° Southwest 128 147 4,400 1,140 Climbing Indianapolis Center
11:01PM 39.7386 -83.0728 240° Southwest 132 152 5,500 1,020 Climbing Indianapolis Center
11:01PM 39.7281 -83.0958 239° Southwest 138 159 6,100 540 Climbing Indianapolis Center
11:02PM 39.7169 -83.1156 234° Southwest 136 157 6,100  Level Indianapolis Center
11:02PM 39.6997 -83.1442 232° Southwest 180 207 6,100  Level Indianapolis Center
11:03PM 39.6847 -83.1664 229° Southwest 170 196 6,100 60 Level Indianapolis Center
11:03PM 39.6683 -83.2028 240° Southwest 195 224 6,200 60 Climbing Indianapolis Center
11:04PM 39.6556 -83.2286 237° Southwest 192 221 6,200 -120 Level Indianapolis Center
11:04PM 39.6383 -83.2722 243° Southwest 200 230 6,100 -120 Descending Indianapolis Center
11:05PM 39.6256 -83.2903 227° Southwest 198 228 6,100  Level Indianapolis Center
11:05PM 39.6036 -83.3197 226° Southwest 196 226 6,100  Level Indianapolis Center
11:06PM 39.5892 -83.3458 234° Southwest 200 230 6,100  Level Indianapolis Center
11:06PM 39.5719 -83.3808 237° Southwest 201 231 6,100  Level Indianapolis Center
11:07PM 39.5594 -83.4089 240° Southwest 202 232 6,100  Level Indianapolis Center
11:07PM 39.5483 -83.4483 250° West 203 234 6,100  Level Indianapolis Center
11:08PM 39.5394 -83.4786 249° West 203 234 6,100  Level Indianapolis Center
11:08PM 39.5289 -83.5136 249° West 202 232 6,100  Level Indianapolis Center
11:09PM 39.5164 -83.5450 243° Southwest 202 232 6,100  Level Indianapolis Center
11:09PM 39.5061 -83.5675 239° Southwest 188 216 6,100  Level Indianapolis Center
11:10PM 39.4872 -83.6039 236° Southwest 194 223 6,100  Level Indianapolis Center
11:11PM 39.4592 -83.6653 239° Southwest 195 224 6,100 -60 Level Indianapolis Center
11:12PM 39.4311 -83.7258 239° Southwest 195 224 6,000 -60 Descending Indianapolis Center
11:13PM 39.3994 -83.7833 235° Southwest 193 222 6,000  Level Indianapolis Center
11:14PM 39.3614 -83.8342 226° Southwest 194 223 6,000  Level Indianapolis Center
11:15PM 39.3242 -83.8872 228° Southwest 196 226 6,000  Level Indianapolis Center
11:16PM 39.2914 -83.9450 234° Southwest 197 227 6,000  Level Indianapolis Center
11:17PM 39.2592 -84.0053 235° Southwest 200 230 6,000  Level Indianapolis Center
11:18PM 39.2261 -84.0647 234° Southwest 201 231 6,000  Level Indianapolis Center
11:19PM 39.1961 -84.1272 238° Southwest 202 232 6,000  Level Indianapolis Center
11:20PM 39.1711 -84.1961 245° Southwest 204 235 6,000  Level Indianapolis Center
11:21PM 39.1475 -84.2647 246° West 206 237 6,000  Level Indianapolis Center
11:22PM 39.1186 -84.3292 240° Southwest 207 238 6,000  Level Indianapolis Center
11:23PM 39.0819 -84.4006 237° Southwest 204 235 6,000  Level Indianapolis Center
11:24PM 39.0667 -84.4333 239° Southwest 203 234 6,000  Level Cincinnati TRACON
11:25PM 39.0333 -84.4833 229° Southwest 199 229 6,000  Level Cincinnati TRACON
11:26PM 38.9833 -84.5500 226° Southwest 197 227 6,000  Level Cincinnati TRACON
11:27PM 38.9500 -84.6167 237° Southwest 197 227 6,000  Level Cincinnati TRACON
11:28PM 38.9333 -84.6667 247° West 199 229 6,000  Level Cincinnati TRACON
11:29PM 38.9000 -84.7167 229° Southwest 196 226 6,000  Level Cincinnati TRACON
11:30PM 38.8667 -84.7833 237° Southwest 198 228 6,000  Level Cincinnati TRACON
11:30PM 38.8586 -84.8086 248° West 197 227 6,000  Level Indianapolis Center
11:31PM 38.8308 -84.8692 240° Southwest 198 228 6,000  Level Indianapolis Center
11:32PM 38.8022 -84.9319 240° Southwest 201 231 6,000  Level Indianapolis Center
11:33PM 38.7736 -84.9925 239° Southwest 200 230 6,000  Level Indianapolis Center
11:34PM 38.7411 -85.0503 234° Southwest 201 231 6,000  Level Indianapolis Center
11:35PM 38.7086 -85.1106 235° Southwest 204 235 6,000  Level Indianapolis Center
11:36PM 38.6758 -85.1686 234° Southwest 203 234 6,000  Level Indianapolis Center
11:37PM 38.6428 -85.2297 235° Southwest 207 238 6,000 -120 Level Indianapolis Center
11:38PM 38.6014 -85.2892 228° Southwest 204 235 5,800 -480 Descending Indianapolis Center
11:39PM 38.5678 -85.3519 236° Southwest 210 242 5,100 -780 Descending Indianapolis Center
11:40PM 38.5344 -85.4139 235° Southwest 213 245 4,300 -600 Descending Indianapolis Center
11:42PM 38.4950 -85.4847 235° Southwest 213 245 3,900 -420 Descending Indianapolis Center